Tulsa, OK (74106)

2:01 AM CDT on November 01, 2014 (GMT -0500)
Cherry Street | Change Station
CLOSE
Current Station
Personal Weather Station
Location: Tulsa, OK
Elevation: 743 ft
Nearby Weather Stations
Active Advisory: Freeze Warning

Elev 743 ft 36.14 °N, 95.97 °W | Updated 1 minute ago

Clear
Clear
35.6 °F
Feels Like 36 °F
N
0.0
Wind Variable Wind from ENE
Gusts 0.0 mph

Today
High -- | Low -- °F
--% Chance of Precip.
Yesterday
High -- | Low -- °F
Precip. -- in
7:46 AM 6:27 PM
Waxing Gibbous, 63% visible
Pressure 30.43 in
Visibility 10.0 miles
Clouds Few 25000 ft
Windchill 36 °F
Dew Point 25 °F
Humidity 64%
Rainfall 0.00 in
Snow Depth Not available.
UV 0 out of 12
Pollen 4.00 out of 12
Air Quality Not available.
Flu Activity Not available.
METAR KTUL 010653Z 06005KT 10SM FEW250 02/M05 A3042 RMK AO2 SLP303 T00221050 $

More Conditions Fewer Conditions

Pressure 30.43 in
Visibility 10.0 miles
Clouds Few 25000 ft
Windchill 36 °F
Dew Point 25 °F
Humidity 64%
Rainfall 0.00 in
Snow Depth Not available.
UV 0 out of 12
Pollen 4.00 out of 12
Air Quality Not available.
Flu Activity Not available.
METAR KTUL 010653Z 06005KT 10SM FEW250 02/M05 A3042 RMK AO2 SLP303 T00221050 $

More Conditions Fewer Conditions

10-Day Weather Forecast

Almanac

Astronomy

Nov. 01, 2014 Rise Set
Actual Time
Civil Twilight
Nautical Twilight
Astronomical Twilight
Moon
Length of Visible Light
Length of Day
Tomorrow will be .
, % of the Moon is Illuminated

Today's Extremes

State Highs State Lows

Community

WunderPhotos

Upload Photos

1,766,866 photos uploaded!

WunderBlogs® & News

Nearby

Air Quality

  Air Quality AQ Index Pollutant
Not available.

Snow Depth

Station Depth Elevation

Earthquake Activity

City Distance Mag. Time & Date
Minimum magnitude displayed is 2.5.

Coastal Water Temperatures

Place Temperature

Nearby Weather Stations